Time;durP1;ratioP1;P1;durP2;ratioP2;P2;SDS_P1;SDS_P2;PMS_P1;PMS_P2;Temp;Humidity;BMP_temperature;BMP_pressure;BME280_temperature;BME280_humidity;BME280_pressure;Samples;Min_cycle;Max_cycle;Signal;HPM_P1;HPM_P2
2022/07/09 00:00:43;;;;;;;10.02;3.05;;;589.10;2150.40;;;;;;5075259;28;20413;-78
2022/07/09 00:03:08;;;;;;;9.63;3.30;;;589.10;2150.40;;;;;;5075399;28;20028;-79
2022/07/09 00:05:34;;;;;;;5.57;2.95;;;589.10;2150.40;;;;;;5075071;28;20028;-79
2022/07/09 00:08:00;;;;;;;6.80;2.92;;;589.20;2124.80;;;;;;5075265;28;20355;-79
2022/07/09 00:10:26;;;;;;;7.05;2.50;;;589.00;2150.40;;;;;;5075193;28;20058;-78
2022/07/09 00:12:51;;;;;;;5.50;2.88;;;589.10;2150.40;;;;;;5073895;28;20032;-78
2022/07/09 00:15:17;;;;;;;4.25;3.17;;;589.10;2150.40;;;;;;5093350;28;20469;-79
2022/07/09 00:17:43;;;;;;;4.10;2.90;;;589.10;2150.40;;;;;;5093079;28;20028;-79
2022/07/09 00:20:09;;;;;;;6.50;2.78;;;589.00;2176.00;;;;;;5075182;28;20039;-79
2022/07/09 00:22:35;;;;;;;6.45;2.97;;;589.00;2176.00;;;;;;5074711;28;20020;-78
2022/07/09 00:25:02;;;;;;;4.25;2.88;;;589.10;2176.00;;;;;;5092378;28;20039;-78
2022/07/09 00:27:27;;;;;;;5.18;2.70;;;589.00;2201.60;;;;;;5092807;28;20486;-79
2022/07/09 00:29:53;;;;;;;6.93;2.90;;;589.10;2176.00;;;;;;5072208;28;20071;-78
2022/07/09 00:32:19;;;;;;;9.45;2.97;;;589.00;2201.60;;;;;;5092755;28;20489;-78
2022/07/09 00:34:45;;;;;;;9.18;2.55;;;589.00;2201.60;;;;;;5074704;28;20020;-79
2022/07/09 00:37:11;;;;;;;7.13;3.05;;;588.90;2227.20;;;;;;5074713;28;20039;-78
2022/07/09 00:39:37;;;;;;;4.10;2.53;;;589.00;2227.20;;;;;;5092518;28;20028;-78
2022/07/09 00:42:08;;;;;;;3.35;2.25;;;588.80;2252.80;;;;;;5092902;28;20069;-78
2022/07/09 00:44:35;;;;;;;6.53;3.53;;;588.80;2252.80;;;;;;5095542;28;20016;-79
2022/07/09 00:47:02;;;;;;;7.75;2.95;;;588.80;2278.40;;;;;;5108306;28;20016;-78
2022/07/09 00:49:30;;;;;;;5.90;3.97;;;564.10;2278.40;;;;;;5080700;28;20076;-78
2022/07/09 00:51:57;;;;;;;6.65;2.80;;;564.10;2278.40;;;;;;5090155;28;20047;-79
2022/07/09 00:54:24;;;;;;;6.00;3.05;;;588.80;2278.40;;;;;;5092179;28;20051;-79
2022/07/09 00:56:52;;;;;;;5.90;2.90;;;564.10;2278.40;;;;;;5074293;28;20044;-79
2022/07/09 00:59:18;;;;;;;8.98;3.33;;;588.80;2252.80;;;;;;5072141;28;20020;-79
2022/07/09 01:01:44;;;;;;;7.82;2.70;;;588.80;2252.80;;;;;;5074112;28;20072;-79
2022/07/09 01:04:09;;;;;;;13.15;4.22;;;588.90;2252.80;;;;;;5074423;28;20108;-79
2022/07/09 01:06:35;;;;;;;4.80;2.95;;;588.80;2278.40;;;;;;5074041;28;20023;-79
2022/07/09 01:09:04;;;;;;;3.85;2.60;;;588.80;2278.40;;;;;;5074261;28;20469;-79
2022/07/09 01:11:30;;;;;;;4.60;3.03;;;588.80;2278.40;;;;;;5092235;28;20037;-79
2022/07/09 01:13:57;;;;;;;7.90;3.40;;;588.80;2252.80;;;;;;5071677;28;20016;-79
2022/07/09 01:16:31;;;;;;;7.50;2.60;;;588.90;2252.80;;;;;;5073846;28;20031;-78
2022/07/09 01:18:57;;;;;;;4.53;2.63;;;564.10;2278.40;;;;;;5071640;28;20012;-79
2022/07/09 01:21:23;;;;;;;13.95;3.50;;;588.80;2278.40;;;;;;5074020;28;20069;-78
2022/07/09 01:23:49;;;;;;;5.53;2.78;;;564.10;2278.40;;;;;;5073795;28;20100;-78
2022/07/09 01:26:16;;;;;;;11.95;3.13;;;564.10;2304.00;;;;;;5092147;28;20477;-78
2022/07/09 01:28:42;;;;;;;9.95;3.28;;;564.10;2304.00;;;;;;5073766;28;20020;-79
2022/07/09 01:31:07;;;;;;;8.43;2.70;;;564.10;2278.40;;;;;;5073825;28;20043;-78
2022/07/09 01:33:33;;;;;;;5.97;3.47;;;564.10;2278.40;;;;;;5073704;28;20016;-78
2022/07/09 01:35:59;;;;;;;8.73;4.00;;;564.10;2278.40;;;;;;5073720;28;20059;-78
2022/07/09 01:38:25;;;;;;;9.85;3.13;;;564.10;2201.60;;;;;;5091888;28;20092;-78
2022/07/09 01:40:51;;;;;;;8.73;3.13;;;564.10;2124.80;;;;;;5073748;28;20046;-78
2022/07/09 01:43:16;;;;;;;11.65;2.05;;;564.10;2073.60;;;;;;5073920;28;20016;-78
2022/07/09 01:45:42;;;;;;;5.90;2.03;;;588.80;2022.40;;;;;;5073695;28;20107;-79
2022/07/09 01:48:08;;;;;;;13.95;3.25;;;564.10;1945.60;;;;;;5073792;28;20046;-78
2022/07/09 01:50:34;;;;;;;5.28;1.67;;;564.10;1920.00;;;;;;5091412;28;20036;-78
2022/07/09 01:52:59;;;;;;;9.07;2.40;;;564.10;1894.40;;;;;;5073757;28;20028;-79
2022/07/09 01:55:25;;;;;;;9.27;1.75;;;564.10;1894.40;;;;;;5073261;28;20032;-78
2022/07/09 01:57:51;;;;;;;6.38;2.20;;;588.80;1868.80;;;;;;5073898;28;20052;-78
2022/07/09 02:00:19;;;;;;;9.48;2.42;;;588.80;1868.80;;;;;;5073471;28;20093;-78
2022/07/09 02:02:44;;;;;;;2.90;2.00;;;588.80;1868.80;;;;;;5073755;28;20020;-78
2022/07/09 02:05:10;;;;;;;8.45;2.42;;;588.80;1868.80;;;;;;5072782;28;20486;-78
2022/07/09 02:07:36;;;;;;;7.63;1.73;;;588.80;1868.80;;;;;;5091712;28;20020;-78
2022/07/09 02:10:05;;;;;;;8.68;2.33;;;588.80;1868.80;;;;;;5091715;28;20028;-78
2022/07/09 02:12:31;;;;;;;7.85;2.00;;;588.80;1868.80;;;;;;5087278;28;20062;-78
2022/07/09 02:14:57;;;;;;;8.30;2.10;;;564.10;1868.80;;;;;;5091980;28;20440;-79
2022/07/09 02:17:23;;;;;;;9.32;2.80;;;588.80;1894.40;;;;;;5073301;28;20359;-79
2022/07/09 02:19:49;;;;;;;5.47;2.95;;;564.10;1945.60;;;;;;5073436;28;20020;-79
2022/07/09 02:22:14;;;;;;;7.40;2.10;;;564.00;1971.20;;;;;;5102441;28;20024;-78
2022/07/09 02:24:40;;;;;;;9.43;2.65;;;563.90;2048.00;;;;;;5073044;28;20447;-78
2022/07/09 02:27:06;;;;;;;4.88;2.40;;;563.90;2073.60;;;;;;5073282;28;20119;-79
2022/07/09 02:29:32;;;;;;;4.13;2.20;;;563.80;2124.80;;;;;;5073475;28;20032;-78
2022/07/09 02:31:58;;;;;;;4.80;2.10;;;563.80;2124.80;;;;;;5091161;28;20044;-78
2022/07/09 02:34:24;;;;;;;11.68;3.30;;;563.60;2176.00;;;;;;5073259;28;20052;-78
2022/07/09 02:36:51;;;;;;;9.07;2.30;;;563.60;2176.00;;;;;;5073459;28;20422;-78
2022/07/09 02:39:17;;;;;;;5.78;2.13;;;563.60;2201.60;;;;;;5073154;28;20511;-79
2022/07/09 02:41:43;;;;;;;4.40;2.00;;;563.50;2201.60;;;;;;5073182;28;20103;-78
2022/07/09 02:44:09;;;;;;;7.65;1.67;;;563.50;2227.20;;;;;;5073022;28;20075;-78
2022/07/09 02:46:35;;;;;;;7.22;1.73;;;563.40;2252.80;;;;;;5073062;28;20501;-79
2022/07/09 02:49:00;;;;;;;3.45;1.95;;;563.20;2278.40;;;;;;5076287;28;20359;-78
2022/07/09 02:51:26;;;;;;;5.63;1.70;;;538.50;2278.40;;;;;;5076767;28;20027;-78
2022/07/09 02:53:52;;;;;;;9.23;1.67;;;538.50;2304.00;;;;;;5076521;28;20020;-78
2022/07/09 02:56:18;;;;;;;6.55;1.75;;;563.20;2304.00;;;;;;5076355;28;20094;-78
2022/07/09 02:58:44;;;;;;;3.50;1.50;;;538.50;2304.00;;;;;;5094785;28;20020;-78
2022/07/09 03:01:10;;;;;;;5.80;1.80;;;538.50;2304.00;;;;;;5076146;28;20123;-78
2022/07/09 03:03:36;;;;;;;4.93;2.05;;;538.40;2329.60;;;;;;5076446;28;20032;-79
2022/07/09 03:06:03;;;;;;;3.83;1.70;;;538.50;2304.00;;;;;;5076459;28;20592;-78
2022/07/09 03:08:29;;;;;;;6.07;2.35;;;538.50;2304.00;;;;;;5076493;28;20028;-78
2022/07/09 03:10:54;;;;;;;8.35;2.05;;;538.50;2304.00;;;;;;5076295;28;20028;-78
2022/07/09 03:13:20;;;;;;;6.05;1.60;;;538.50;2304.00;;;;;;5076547;28;20028;-78
2022/07/09 03:15:46;;;;;;;3.92;1.80;;;538.50;2278.40;;;;;;5094437;28;20047;-78
2022/07/09 03:18:12;;;;;;;4.82;2.03;;;538.50;2278.40;;;;;;5076476;28;20485;-78
2022/07/09 03:20:38;;;;;;;3.72;1.52;;;563.20;2304.00;;;;;;5075954;28;20477;-78
2022/07/09 03:23:04;;;;;;;4.43;1.90;;;563.20;2304.00;;;;;;5076514;28;20016;-79
2022/07/09 03:25:30;;;;;;;3.55;1.60;;;563.20;2304.00;;;;;;5094195;28;20024;-78
2022/07/09 03:27:56;;;;;;;7.47;2.00;;;538.50;2304.00;;;;;;5076136;28;20530;-78
2022/07/09 03:30:23;;;;;;;3.05;1.90;;;563.20;2355.20;;;;;;5094377;28;20055;-78
2022/07/09 03:32:49;;;;;;;3.55;1.70;;;538.50;2355.20;;;;;;5075706;28;20073;-78
2022/07/09 03:35:15;;;;;;;3.70;1.77;;;538.50;2355.20;;;;;;5076245;28;20425;-78
2022/07/09 03:37:41;;;;;;;2.75;1.55;;;538.50;2380.80;;;;;;5075798;28;20038;-78
2022/07/09 03:40:07;;;;;;;3.17;1.80;;;538.50;2380.80;;;;;;5075919;28;20028;-78
2022/07/09 03:42:33;;;;;;;3.65;1.48;;;538.50;2380.80;;;;;;5093679;28;20028;-78
2022/07/09 03:44:59;;;;;;;3.67;1.80;;;538.50;2380.80;;;;;;5075958;28;20102;-78
2022/07/09 03:47:25;;;;;;;2.70;2.03;;;538.50;2380.80;;;;;;5075835;28;20124;-78
2022/07/09 03:49:51;;;;;;;6.50;2.17;;;538.50;2380.80;;;;;;5093832;28;20473;-78
2022/07/09 03:52:16;;;;;;;3.67;1.45;;;563.20;2406.40;;;;;;5075442;28;20220;-79
2022/07/09 03:54:43;;;;;;;3.20;1.92;;;538.50;2380.80;;;;;;5075287;28;20386;-78
2022/07/09 03:57:09;;;;;;;2.25;1.60;;;563.20;2406.40;;;;;;5093684;28;20044;-78
2022/07/09 03:59:35;;;;;;;4.47;1.90;;;563.20;2380.80;;;;;;5092329;28;20016;-78
2022/07/09 04:02:01;;;;;;;4.03;1.80;;;538.50;2355.20;;;;;;5075500;28;20024;-78
2022/07/09 04:04:28;;;;;;;4.20;1.88;;;538.50;2380.80;;;;;;5093510;28;20051;-78
2022/07/09 04:06:55;;;;;;;6.88;1.90;;;538.50;2406.40;;;;;;5093595;28;20462;-78
2022/07/09 04:09:21;;;;;;;3.92;1.50;;;538.20;2406.40;;;;;;5093080;28;20051;-78
2022/07/09 04:11:47;;;;;;;3.80;1.73;;;538.10;2406.40;;;;;;5074036;28;20131;-78
2022/07/09 04:14:14;;;;;;;6.95;1.65;;;538.10;2406.40;;;;;;5074728;28;20028;-78
2022/07/09 04:16:40;;;;;;;2.85;1.33;;;538.00;2406.40;;;;;;5075361;28;20028;-78
2022/07/09 04:19:07;;;;;;;5.25;1.55;;;538.10;2406.40;;;;;;5075035;28;20046;-78
2022/07/09 04:21:32;;;;;;;2.95;1.40;;;538.20;2406.40;;;;;;5092401;28;20558;-78
2022/07/09 04:23:58;;;;;;;4.40;2.20;;;538.10;2406.40;;;;;;5093243;28;20047;-78
2022/07/09 04:26:24;;;;;;;3.25;1.80;;;538.10;2406.40;;;;;;5093098;28;20114;-79
2022/07/09 04:28:50;;;;;;;5.30;1.40;;;537.90;2406.40;;;;;;5093108;28;20105;-78
2022/07/09 04:31:21;;;;;;;3.05;1.33;;;537.80;2406.40;;;;;;5092785;28;20374;-77
2022/07/09 04:33:47;;;;;;;4.72;1.50;;;537.90;2406.40;;;;;;5090637;28;20538;-80
2022/07/09 04:36:13;;;;;;;5.75;1.63;;;537.70;2406.40;;;;;;5074809;28;20047;-80
2022/07/09 04:38:38;;;;;;;3.97;1.40;;;537.90;2406.40;;;;;;5093137;28;20058;-80
2022/07/09 04:41:05;;;;;;;6.35;1.90;;;537.80;2406.40;;;;;;5092722;28;20040;-76
2022/07/09 04:43:31;;;;;;;3.55;1.60;;;537.70;2406.40;;;;;;5074928;28;20020;-79
2022/07/09 04:45:57;;;;;;;4.13;1.60;;;537.90;2406.40;;;;;;5074633;28;20044;-78
2022/07/09 04:48:23;;;;;;;4.32;1.50;;;537.80;2406.40;;;;;;5074060;28;20066;-79
2022/07/09 04:50:49;;;;;;;3.63;2.00;;;537.80;2406.40;;;;;;5074588;28;20044;-79
2022/07/09 04:53:14;;;;;;;2.72;1.80;;;537.90;2406.40;;;;;;5092235;28;20016;-78
2022/07/09 04:55:40;;;;;;;2.13;1.40;;;537.90;2406.40;;;;;;5074273;28;20054;-78
2022/07/09 04:58:06;;;;;;;5.07;1.45;;;537.90;2406.40;;;;;;5083759;28;20063;-78
2022/07/09 05:00:35;;;;;;;3.55;1.50;;;538.00;2406.40;;;;;;5083545;28;20032;-76
2022/07/09 05:03:02;;;;;;;9.85;1.80;;;537.90;2406.40;;;;;;5092447;28;20020;-79
2022/07/09 05:05:28;;;;;;;2.90;1.70;;;538.00;2406.40;;;;;;5075018;28;20027;-78
2022/07/09 05:07:54;;;;;;;5.32;1.63;;;537.90;2406.40;;;;;;5092590;28;20374;-78
2022/07/09 05:10:20;;;;;;;11.38;2.30;;;537.90;2406.40;;;;;;5066279;28;20039;-78
2022/07/09 05:12:46;;;;;;;2.60;1.65;;;537.90;2406.40;;;;;;5086242;28;20020;-78
2022/07/09 05:15:13;;;;;;;4.70;1.65;;;512.90;2380.80;;;;;;5092286;28;20020;-78
2022/07/09 05:17:39;;;;;;;4.88;2.00;;;538.00;2406.40;;;;;;5062514;28;20111;-77
2022/07/09 05:20:06;;;;;;;12.90;2.03;;;538.00;2406.40;;;;;;5058005;28;20559;-79
2022/07/09 05:22:32;;;;;;;4.05;1.70;;;538.20;2406.40;;;;;;5064487;28;20032;-79
2022/07/09 05:24:58;;;;;;;5.78;1.95;;;538.20;2406.40;;;;;;5088179;28;20035;-78
2022/07/09 05:27:25;;;;;;;4.93;2.08;;;538.10;2406.40;;;;;;5066089;28;20025;-76
2022/07/09 05:29:50;;;;;;;6.28;2.00;;;538.20;2406.40;;;;;;5086272;28;20035;-79
2022/07/09 05:32:16;;;;;;;6.53;1.85;;;538.20;2406.40;;;;;;5067740;28;20029;-79
2022/07/09 05:34:42;;;;;;;5.75;2.08;;;538.10;2406.40;;;;;;5066306;28;20044;-78
2022/07/09 05:37:08;;;;;;;3.95;2.60;;;538.20;2406.40;;;;;;5091892;28;20032;-78
2022/07/09 05:39:34;;;;;;;5.57;3.25;;;538.20;2406.40;;;;;;5092394;28;20477;-79
2022/07/09 05:41:59;;;;;;;4.10;3.08;;;538.20;2406.40;;;;;;5060345;28;20035;-79
2022/07/09 05:44:25;;;;;;;10.23;3.08;;;538.30;2406.40;;;;;;5066660;28;20032;-80
2022/07/09 05:46:51;;;;;;;7.60;3.35;;;538.20;2406.40;;;;;;5067662;28;20047;-80
2022/07/09 05:49:17;;;;;;;4.22;2.38;;;538.30;2406.40;;;;;;5091379;28;20031;-79
2022/07/09 05:51:43;;;;;;;4.32;2.15;;;538.20;2406.40;;;;;;5092250;28;20024;-79
2022/07/09 05:54:09;;;;;;;4.65;2.55;;;538.20;2406.40;;;;;;5069808;28;20059;-79
2022/07/09 05:56:36;;;;;;;2.90;1.80;;;538.10;2406.40;;;;;;5070149;28;20497;-79
2022/07/09 05:59:03;;;;;;;11.60;2.53;;;538.20;2406.40;;;;;;5069046;28;20044;-79
2022/07/09 06:01:29;;;;;;;5.03;1.98;;;538.30;2406.40;;;;;;5068002;28;20078;-78
2022/07/09 06:03:54;;;;;;;3.88;1.85;;;538.40;2406.40;;;;;;5083081;28;20466;-78
2022/07/09 06:06:20;;;;;;;10.65;2.38;;;538.40;2406.40;;;;;;5091116;28;20020;-79
2022/07/09 06:08:46;;;;;;;4.07;1.80;;;538.50;2406.40;;;;;;5081852;28;20126;-79
2022/07/09 06:11:12;;;;;;;4.13;1.90;;;563.30;2432.00;;;;;;5096991;28;20036;-79
2022/07/09 06:13:38;;;;;;;3.42;2.05;;;563.40;2432.00;;;;;;5090593;28;20028;-79
2022/07/09 06:16:04;;;;;;;2.47;1.65;;;563.50;2432.00;;;;;;5092276;28;20028;-80
2022/07/09 06:18:30;;;;;;;2.92;2.08;;;563.60;2432.00;;;;;;5092406;28;20026;-81
2022/07/09 06:20:55;;;;;;;3.03;1.80;;;563.60;2432.00;;;;;;5063408;28;20379;-81
2022/07/09 06:23:21;;;;;;;3.47;1.70;;;563.70;2432.00;;;;;;5077447;28;20027;-81
2022/07/09 06:25:47;;;;;;;5.28;2.05;;;563.80;2432.00;;;;;;5069380;28;20039;-79
2022/07/09 06:28:13;;;;;;;9.35;2.35;;;563.90;2432.00;;;;;;5087091;28;20081;-82
2022/07/09 06:30:39;;;;;;;3.72;1.98;;;563.90;2432.00;;;;;;5070454;28;20528;-79
2022/07/09 06:33:05;;;;;;;4.35;2.08;;;;;;;;;;5070900;28;20115;-80
2022/07/09 06:35:31;;;;;;;6.45;1.90;;;564.10;2432.00;;;;;;5076676;28;20031;-77
2022/07/09 06:38:00;;;;;;;5.25;2.22;;;588.90;2432.00;;;;;;5068973;28;20028;-81
2022/07/09 06:40:26;;;;;;;3.70;1.98;;;589.00;2355.20;;;;;;5077876;28;20355;-80
2022/07/09 06:42:52;;;;;;;6.70;1.90;;;589.00;2329.60;;;;;;5094554;28;20059;-79
2022/07/09 06:45:18;;;;;;;4.63;2.47;;;589.10;2329.60;;;;;;5095799;28;20497;-81
2022/07/09 06:47:44;;;;;;;4.13;1.92;;;589.20;2278.40;;;;;;5095672;28;20027;-81
2022/07/09 06:50:10;;;;;;;6.00;1.92;;;589.20;2252.80;;;;;;5095383;28;20089;-81
2022/07/09 06:52:36;;;;;;;4.85;2.05;;;589.20;2278.40;;;;;;5095832;28;20012;-79
2022/07/09 06:55:01;;;;;;;4.13;2.45;;;589.30;2329.60;;;;;;5094360;28;20036;-81
2022/07/09 06:57:28;;;;;;;3.97;2.20;;;589.30;2355.20;;;;;;5083617;28;20047;-79
2022/07/09 06:59:54;;;;;;;6.72;2.85;;;589.50;2304.00;;;;;;5077488;28;20031;-80
2022/07/09 07:02:20;;;;;;;6.05;2.42;;;589.60;2278.40;;;;;;5095525;28;20024;-79
2022/07/09 07:04:46;;;;;;;6.20;2.33;;;589.70;2278.40;;;;;;5095368;28;20468;-80
2022/07/09 07:07:11;;;;;;;8.15;3.17;;;589.70;2329.60;;;;;;5095239;28;20024;-83
2022/07/09 07:09:37;;;;;;;7.20;3.28;;;614.50;2252.80;;;;;;5093665;28;20077;-79
2022/07/09 07:12:03;;;;;;;4.47;2.55;;;614.50;2201.60;;;;;;5082679;28;20028;-79
2022/07/09 07:14:29;;;;;;;5.13;2.63;;;614.60;2201.60;;;;;;5094138;28;20036;-78
2022/07/09 07:16:55;;;;;;;8.15;2.47;;;614.70;2176.00;;;;;;5075401;28;20032;-78
2022/07/09 07:19:21;;;;;;;6.50;2.90;;;614.80;2124.80;;;;;;5076279;28;20059;-79
2022/07/09 07:21:48;;;;;;;5.13;2.50;;;614.80;2124.80;;;;;;5076522;28;20024;-84
2022/07/09 07:24:14;;;;;;;5.13;2.70;;;614.90;2099.20;;;;;;5073746;28;20040;-87
2022/07/09 07:26:39;;;;;;;4.43;2.42;;;615.10;2099.20;;;;;;5095210;28;20427;-82
2022/07/09 07:29:05;;;;;;;10.05;3.33;;;615.20;2124.80;;;;;;5076757;28;20023;-81
2022/07/09 07:31:31;;;;;;;6.13;2.92;;;640.00;2099.20;;;;;;5077651;28;20032;-83
2022/07/09 07:33:57;;;;;;;3.88;2.95;;;640.00;1996.80;;;;;;5086025;28;20023;-86
2022/07/09 07:36:23;;;;;;;4.50;2.42;;;615.20;2048.00;;;;;;5082421;28;20024;-80
2022/07/09 07:38:49;;;;;;;5.68;2.58;;;640.00;1996.80;;;;;;5076886;28;20023;-87
2022/07/09 07:41:18;;;;;;;4.07;2.70;;;640.00;1971.20;;;;;;5064093;28;20028;-82
2022/07/09 07:43:45;;;;;;;6.65;2.67;;;640.00;1971.20;;;;;;5094318;28;20013;-82
2022/07/09 07:46:11;;;;;;;3.95;2.22;;;615.30;1996.80;;;;;;5094951;28;20020;-81
2022/07/09 07:48:37;;;;;;;5.47;2.13;;;640.20;1920.00;;;;;;5078918;28;20020;-81
2022/07/09 07:51:03;;;;;;;4.72;2.30;;;640.50;1894.40;;;;;;5093677;28;20032;-78
2022/07/09 07:53:33;;;;;;;3.42;2.10;;;640.70;1868.80;;;;;;5075979;28;20028;-77
2022/07/09 07:56:03;;;;;;;7.60;2.33;;;665.60;1868.80;;;;;;5093533;28;20044;-78
2022/07/09 07:58:29;;;;;;;5.50;2.05;;;640.70;1843.20;;;;;;5075092;28;20043;-77
2022/07/09 08:00:54;;;;;;;4.10;2.53;;;640.40;1868.80;;;;;;5093487;28;20030;-77
2022/07/09 08:03:20;;;;;;;3.92;2.00;;;640.20;1868.80;;;;;;5075459;28;20061;-78
2022/07/09 08:05:46;;;;;;;3.78;2.20;;;640.30;1868.80;;;;;;5074704;28;20105;-78
2022/07/09 08:08:12;;;;;;;5.15;2.35;;;640.40;1868.80;;;;;;5075538;28;20089;-78
2022/07/09 08:10:38;;;;;;;4.35;2.38;;;640.30;1868.80;;;;;;5075163;28;20414;-78
2022/07/09 08:13:04;;;;;;;9.98;2.65;;;640.20;1894.40;;;;;;5075478;28;20016;-79
2022/07/09 08:15:30;;;;;;;4.82;2.38;;;640.10;1868.80;;;;;;5075811;28;20051;-78
2022/07/09 08:17:56;;;;;;;3.50;1.98;;;640.10;1843.20;;;;;;5057582;28;20016;-78
2022/07/09 08:20:22;;;;;;;4.80;2.20;;;640.10;1843.20;;;;;;5064993;28;20363;-78
2022/07/09 08:22:47;;;;;;;3.20;2.10;;;640.40;1868.80;;;;;;5091954;28;20026;-77
2022/07/09 08:25:13;;;;;;;3.47;2.38;;;640.50;1843.20;;;;;;5093204;28;20028;-76
2022/07/09 08:27:40;;;;;;;4.25;2.40;;;640.50;1868.80;;;;;;5093101;28;20071;-76
2022/07/09 08:30:06;;;;;;;3.90;2.60;;;640.40;1843.20;;;;;;5074923;28;20039;-76
2022/07/09 08:32:32;;;;;;;5.90;2.40;;;640.40;1817.60;;;;;;5093061;28;20131;-76
2022/07/09 08:34:58;;;;;;;4.28;2.58;;;640.50;1817.60;;;;;;5092891;28;20091;-77
2022/07/09 08:37:24;;;;;;;4.45;2.28;;;640.70;1792.00;;;;;;5092970;28;20032;-76
2022/07/09 08:39:50;;;;;;;6.50;2.35;;;640.50;1766.40;;;;;;5091045;28;20035;-77
2022/07/09 08:42:16;;;;;;;5.43;2.40;;;640.70;1740.80;;;;;;5093048;28;20038;-77
2022/07/09 08:44:47;;;;;;;7.90;2.38;;;640.90;1792.00;;;;;;5092061;28;20030;-76
2022/07/09 08:47:14;;;;;;;5.80;2.42;;;665.60;1740.80;;;;;;5074603;28;20437;-78
2022/07/09 08:49:42;;;;;;;7.30;2.50;;;640.80;1715.20;;;;;;5073599;28;20040;-76
2022/07/09 08:52:08;;;;;;;7.05;2.50;;;640.70;1715.20;;;;;;5074265;28;20122;-76
2022/07/09 08:54:37;;;;;;;6.75;2.58;;;640.80;1740.80;;;;;;5092272;28;20020;-77
2022/07/09 08:57:04;;;;;;;4.32;2.35;;;665.60;1766.40;;;;;;5073963;28;20113;-76
2022/07/09 08:59:31;;;;;;;6.00;2.55;;;666.00;1766.40;;;;;;5074267;28;20837;-77
2022/07/09 09:01:56;;;;;;;4.20;2.60;;;640.90;1689.60;;;;;;5065148;28;20036;-77
2022/07/09 09:04:23;;;;;;;5.75;2.60;;;665.60;1740.80;;;;;;5087874;28;20020;-77
2022/07/09 09:06:50;;;;;;;9.25;2.42;;;665.70;1715.20;;;;;;5092394;28;20016;-77
2022/07/09 09:09:19;;;;;;;4.20;2.10;;;665.70;1740.80;;;;;;5092634;28;20043;-78
2022/07/09 09:11:49;;;;;;;4.10;2.72;;;665.60;1715.20;;;;;;5090567;28;20032;-78
2022/07/09 09:14:21;;;;;;;5.07;3.20;;;640.80;1664.00;;;;;;5061926;28;20027;-78
2022/07/09 09:16:47;;;;;;;8.10;3.17;;;665.70;1689.60;;;;;;5073437;28;20064;-78
2022/07/09 09:19:13;;;;;;;8.63;2.28;;;666.20;1664.00;;;;;;5090563;28;20028;-78
2022/07/09 09:21:39;;;;;;;5.32;2.30;;;691.20;1587.20;;;;;;5092295;28;20034;-78
2022/07/09 09:24:05;;;;;;;6.43;2.35;;;666.40;1612.80;;;;;;5090842;28;20138;-77
2022/07/09 09:26:33;;;;;;;4.13;2.42;;;691.30;1612.80;;;;;;5073677;28;20382;-77
2022/07/09 09:29:03;;;;;;;3.50;2.25;;;666.20;1587.20;;;;;;5091624;28;20017;-78
2022/07/09 09:31:35;;;;;;;5.20;2.92;;;666.20;1612.80;;;;;;5073897;28;20068;-77
2022/07/09 09:34:04;;;;;;;3.97;2.67;;;666.50;1638.40;;;;;;5063888;28;20031;-77
2022/07/09 09:36:35;;;;;;;4.38;2.50;;;666.30;1587.20;;;;;;5070696;28;20180;-77
2022/07/09 09:39:18;;;;;;;6.00;2.47;;;666.30;1587.20;;;;;;5091953;28;20020;-77
2022/07/09 09:41:46;;;;;;;2.92;2.03;;;691.40;1587.20;;;;;;5073504;28;20020;-77
2022/07/09 09:44:15;;;;;;;5.10;2.40;;;691.70;1536.00;;;;;;5071030;28;20423;-78
2022/07/09 09:46:42;;;;;;;6.70;3.15;;;691.30;1536.00;;;;;;5073228;28;20036;-78
2022/07/09 09:49:11;;;;;;;3.88;2.38;;;691.20;1536.00;;;;;;5091527;28;20016;-77
2022/07/09 09:52:02;;;;;;;3.40;2.17;;;691.20;1561.60;;;;;;5073855;28;20043;-78
2022/07/09 09:54:31;;;;;;;5.72;2.05;;;666.30;1587.20;;;;;;5068275;28;20040;-77
2022/07/09 09:56:58;;;;;;;4.13;2.22;;;666.50;1536.00;;;;;;5076923;28;20464;-77
2022/07/09 09:59:24;;;;;;;4.63;1.90;;;691.60;1510.40;;;;;;5095947;28;20019;-78
2022/07/09 10:01:50;;;;;;;3.65;1.95;;;691.90;1484.80;;;;;;5077371;28;20546;-77
2022/07/09 10:04:16;;;;;;;4.05;2.03;;;716.80;1510.40;;;;;;5095842;28;20052;-78
2022/07/09 10:06:43;;;;;;;5.45;2.28;;;716.80;1510.40;;;;;;5077515;28;20028;-78
2022/07/09 10:09:12;;;;;;;3.55;1.80;;;716.90;1433.60;;;;;;5076909;28;20053;-78
2022/07/09 10:11:43;;;;;;;4.75;2.13;;;717.20;1433.60;;;;;;5077060;28;20044;-78
2022/07/09 10:14:15;;;;;;;5.35;2.03;;;717.50;1433.60;;;;;;5077069;28;20047;-78
2022/07/09 10:16:41;;;;;;;5.18;1.85;;;717.40;1408.00;;;;;;5074614;28;20434;-78
2022/07/09 10:19:07;;;;;;;6.22;1.77;;;717.00;1382.40;;;;;;5076551;28;20044;-78
2022/07/09 10:21:40;;;;;;;3.20;1.83;;;717.40;1331.20;;;;;;5076348;28;20037;-77
2022/07/09 10:24:08;;;;;;;8.73;1.90;;;742.40;1382.40;;;;;;5095061;28;20079;-76
2022/07/09 10:26:38;;;;;;;5.45;2.20;;;742.60;1356.80;;;;;;5095507;28;20524;-78
2022/07/09 10:29:17;;;;;;;2.70;1.58;;;717.70;1382.40;;;;;;5095148;28;20016;-79
2022/07/09 10:31:45;;;;;;;4.20;1.85;;;742.50;1356.80;;;;;;5094024;28;20036;-77
2022/07/09 10:34:32;;;;;;;5.35;1.90;;;742.80;1331.20;;;;;;5077076;28;20029;-78
2022/07/09 10:37:03;;;;;;;6.43;1.70;;;743.00;1331.20;;;;;;5095162;28;20039;-77
2022/07/09 10:39:29;;;;;;;10.45;2.05;;;742.90;1305.60;;;;;;5076371;28;20123;-78
2022/07/09 10:42:25;;;;;;;10.35;1.83;;;742.90;1280.00;;;;;;5095778;28;20008;-80
2022/07/09 10:44:51;;;;;;;11.00;2.42;;;743.10;1254.40;;;;;;5094908;28;20028;-79
2022/07/09 10:47:18;;;;;;;4.22;1.92;;;768.10;1228.80;;;;;;5077410;28;20058;-79
2022/07/09 10:49:44;;;;;;;4.18;1.85;;;768.10;1228.80;;;;;;5095210;28;20032;-79
2022/07/09 10:52:09;;;;;;;3.03;1.77;;;768.30;1254.40;;;;;;5094820;28;20098;-79
2022/07/09 10:54:46;;;;;;;3.58;2.20;;;743.30;1254.40;;;;;;5076852;28;20469;-79
2022/07/09 10:57:13;;;;;;;10.73;1.98;;;742.70;1305.60;;;;;;5090448;28;20040;-80
2022/07/09 10:59:44;;;;;;;4.40;2.10;;;717.50;1280.00;;;;;;5095254;28;20016;-79
2022/07/09 11:02:18;;;;;;;3.17;1.88;;;716.90;1305.60;;;;;;5076684;28;20032;-80
2022/07/09 11:04:51;;;;;;;4.88;1.40;;;717.70;1305.60;;;;;;5092533;28;20051;-78
2022/07/09 11:07:24;;;;;;;4.05;1.60;;;742.80;1280.00;;;;;;5076887;28;20434;-78
2022/07/09 11:09:52;;;;;;;3.22;1.92;;;743.10;1280.00;;;;;;5077274;28;20534;-80
2022/07/09 11:12:22;;;;;;;9.55;1.98;;;768.10;1254.40;;;;;;5077661;28;20481;-78
2022/07/09 11:14:50;;;;;;;4.38;1.80;;;768.10;1203.20;;;;;;5075777;28;20052;-78
2022/07/09 11:17:20;;;;;;;4.35;1.50;;;768.20;1203.20;;;;;;5097461;28;20031;-78
2022/07/09 11:19:47;;;;;;;4.28;2.10;;;768.20;1203.20;;;;;;5077758;28;20024;-78
2022/07/09 11:22:15;;;;;;;4.32;1.65;;;768.60;1203.20;;;;;;5077655;28;20386;-79
2022/07/09 11:24:41;;;;;;;4.55;1.50;;;768.50;1203.20;;;;;;5095214;28;20034;-80
2022/07/09 11:27:08;;;;;;;3.92;1.98;;;768.80;1203.20;;;;;;5076968;28;20020;-79
2022/07/09 11:29:35;;;;;;;5.05;1.50;;;768.80;1203.20;;;;;;5076274;28;20042;-79
2022/07/09 11:32:02;;;;;;;6.07;1.65;;;743.10;1203.20;;;;;;5075729;28;20115;-79
2022/07/09 11:34:29;;;;;;;7.00;1.70;;;742.60;1228.80;;;;;;5094346;28;20095;-78
2022/07/09 11:36:56;;;;;;;4.05;1.67;;;742.40;1254.40;;;;;;5093983;28;20027;-79
2022/07/09 11:39:23;;;;;;;4.22;1.35;;;742.40;1254.40;;;;;;5082152;28;20027;-79
2022/07/09 11:41:49;;;;;;;3.78;1.58;;;742.90;1254.40;;;;;;5087264;28;20078;-80
2022/07/09 11:44:35;;;;;;;4.38;1.67;;;743.10;1228.80;;;;;;5096268;28;20020;-80
2022/07/09 11:47:14;;;;;;;8.45;1.50;;;768.20;1254.40;;;;;;5095533;28;20099;-80
2022/07/09 11:49:41;;;;;;;6.15;2.10;;;768.60;1203.20;;;;;;5076115;28;20101;-80
2022/07/09 11:52:24;;;;;;;3.00;1.70;;;768.70;1203.20;;;;;;5096071;28;20024;-80
2022/07/09 11:55:06;;;;;;;3.33;1.35;;;768.10;1228.80;;;;;;5077961;28;20074;-78
2022/07/09 11:57:34;;;;;;;2.38;1.50;;;743.10;1228.80;;;;;;5076902;28;20407;-79
2022/07/09 12:00:00;;;;;;;5.03;1.60;;;742.50;1280.00;;;;;;5094403;28;20516;-79
2022/07/09 12:02:30;;;;;;;5.68;2.28;;;742.40;1305.60;;;;;;5094108;28;20463;-80
2022/07/09 12:04:57;;;;;;;5.45;1.70;;;717.50;1280.00;;;;;;5093660;28;20023;-78
2022/07/09 12:07:23;;;;;;;2.58;1.60;;;717.50;1280.00;;;;;;5076453;28;20020;-79
2022/07/09 12:10:09;;;;;;;2.53;1.40;;;717.50;1280.00;;;;;;5093596;28;20024;-80
2022/07/09 12:12:36;;;;;;;3.05;1.77;;;717.40;1254.40;;;;;;5092042;28;20028;-80
2022/07/09 12:15:04;;;;;;;3.05;2.00;;;717.40;1280.00;;;;;;5075335;28;20434;-80
2022/07/09 12:17:31;;;;;;;10.82;2.20;;;717.40;1305.60;;;;;;5075073;28;20036;-78